Edmond, Kansas
Current Conditions -  °F | °C
As of 4:53 PM on Wednesday 22 Oct 2014 (Local Time) from KHLC Reporting Station
Thunderstorm Thunderstorm  
Wind Chill: 72°   Ceiling: 4500
Heat Index: 72°   Visibility: 10mi
Dew Point: 57°   Wind: 6mph
Humidity: 59%   Direction: NA
Pressure: 29.96"   Gusts: 21mph
Location:  39.68°N, 99.7571°W
Report Text: KHLC 222153Z AUTO VRB05G18KT 10SM TS OVC045 22/14 A2996 RMK AO2 LTG DSNT NE TSE44B51 SLP132 T02220139
Loading
Personal Weather Stations






























Interactive Weather Map
Tropical Storm Tracking
New forecast layout! Learn more

10-Day Weather Forecast

Advertisements
Track Severe Weather on mobile